Time;durP1;ratioP1;P1;durP2;ratioP2;P2;SDS_P1;SDS_P2;PMS_P1;PMS_P2;Temp;Humidity;BMP_temperature;BMP_pressure;BME280_temperature;BME280_humidity;BME280_pressure;Samples;Min_cycle;Max_cycle;Signal;HPM_P1;HPM_P2
2022/12/05 00:00:51;;;;;;;41.50;27.27;;;;;;;;;;6310648;22;20164;-65
2022/12/05 00:03:17;;;;;;;46.73;28.00;;;;;;;;;;6310247;22;20167;-64
2022/12/05 00:05:43;;;;;;;41.87;26.50;;;;;;;;;;6310110;22;20374;-65
2022/12/05 00:08:08;;;;;;;45.93;27.47;;;;;;;;;;6310037;22;20363;-65
2022/12/05 00:10:38;;;;;;;40.47;26.00;;;;;;;;;;6310022;22;20176;-68
2022/12/05 00:13:04;;;;;;;46.37;27.97;;;;;;;;;;6310084;22;20142;-65
2022/12/05 00:15:31;;;;;;;39.83;24.60;;;;;;;;;;6310195;22;20200;-65
2022/12/05 00:17:57;;;;;;;45.57;26.40;;;;;;;;;;6310466;22;20387;-66
2022/12/05 00:20:23;;;;;;;47.60;29.37;;;;;;;;;;6310237;22;20617;-66
2022/12/05 00:22:49;;;;;;;45.30;26.93;;;;;;;;;;6310193;22;20386;-66
2022/12/05 00:25:14;;;;;;;35.07;21.17;;;;;;;;;;6282328;22;20152;-66
2022/12/05 00:27:40;;;;;;;43.27;28.57;;;;;;;;;;6308746;22;20218;-66
2022/12/05 00:30:07;;;;;;;42.50;27.37;;;;;;;;;;6311316;22;20180;-67
2022/12/05 00:32:33;;;;;;;48.30;29.10;;;;;;;;;;6313096;22;20500;-66
2022/12/05 00:34:59;;;;;;;41.03;25.00;;;;;;;;;;6312237;22;20374;-67
2022/12/05 00:37:25;;;;;;;43.77;26.07;;;;;;;;;;6311961;22;20149;-65
2022/12/05 00:39:51;;;;;;;40.97;28.07;;;;;;;;;;6312407;22;20183;-66
2022/12/05 00:42:17;;;;;;;43.93;29.00;;;;;;;;;;6285889;22;20179;-69
2022/12/05 00:44:42;;;;;;;45.07;27.77;;;;;;;;;;6284573;22;20160;-66
2022/12/05 00:47:08;;;;;;;44.73;27.33;;;;;;;;;;6312149;22;20598;-66
2022/12/05 00:49:34;;;;;;;44.97;26.97;;;;;;;;;;6284769;22;20233;-65
2022/12/05 00:52:00;;;;;;;38.70;25.73;;;;;;;;;;6284143;22;20888;-67
2022/12/05 00:54:26;;;;;;;41.33;26.07;;;;;;;;;;6310948;22;20156;-66
2022/12/05 00:56:55;;;;;;;40.27;25.73;;;;;;;;;;6311635;22;20152;-66
2022/12/05 00:59:21;;;;;;;35.83;24.20;;;;;;;;;;6284692;22;20193;-66
2022/12/05 01:01:47;;;;;;;43.87;26.57;;;;;;;;;;6284168;22;20868;-66
2022/12/05 01:04:15;;;;;;;35.67;23.40;;;;;;;;;;6284363;22;20462;-66
2022/12/05 01:06:41;;;;;;;36.90;21.67;;;;;;;;;;6311868;22;20367;-66
2022/12/05 01:09:08;;;;;;;41.63;25.70;;;;;;;;;;6284391;22;20474;-65
2022/12/05 01:11:34;;;;;;;50.30;28.77;;;;;;;;;;6283723;22;20454;-71
2022/12/05 01:14:00;;;;;;;45.27;29.00;;;;;;;;;;6308698;22;20458;-71
2022/12/05 01:16:34;;;;;;;42.60;25.57;;;;;;;;;;6308165;22;20371;-71
2022/12/05 01:19:01;;;;;;;47.40;30.43;;;;;;;;;;6308078;22;20177;-71
2022/12/05 01:21:27;;;;;;;45.50;27.63;;;;;;;;;;6309930;22;20526;-71
2022/12/05 01:23:53;;;;;;;44.17;27.00;;;;;;;;;;6312202;22;20145;-71
2022/12/05 01:26:19;;;;;;;45.73;29.60;;;;;;;;;;6310666;22;20579;-71
2022/12/05 01:28:46;;;;;;;43.53;29.40;;;;;;;;;;6308277;22;20617;-71
2022/12/05 01:31:15;;;;;;;49.10;30.20;;;;;;;;;;6308078;22;20160;-72
2022/12/05 01:33:40;;;;;;;37.87;22.37;;;;;;;;;;6308025;22;20410;-72
2022/12/05 01:36:09;;;;;;;47.60;28.77;;;;;;;;;;6308289;22;20375;-71
2022/12/05 01:38:35;;;;;;;44.77;28.43;;;;;;;;;;6309689;22;20176;-71
2022/12/05 01:41:03;;;;;;;40.90;24.27;;;;;;;;;;6308366;22;20371;-73
2022/12/05 01:43:29;;;;;;;40.10;25.97;;;;;;;;;;6308391;22;20674;-70
2022/12/05 01:45:55;;;;;;;40.97;26.20;;;;;;;;;;6307906;22;20156;-69
2022/12/05 01:48:25;;;;;;;42.57;27.80;;;;;;;;;;6307815;22;20722;-71
2022/12/05 01:50:51;;;;;;;41.30;24.97;;;;;;;;;;6308215;22;20425;-69
2022/12/05 01:53:17;;;;;;;46.30;29.77;;;;;;;;;;6309510;22;20168;-71
2022/12/05 01:55:44;;;;;;;40.33;26.20;;;;;;;;;;6309544;22;20386;-71
2022/12/05 01:58:10;;;;;;;42.90;25.70;;;;;;;;;;6309762;22;20148;-71
2022/12/05 02:00:38;;;;;;;43.20;29.03;;;;;;;;;;6309745;22;20152;-71
2022/12/05 02:03:07;;;;;;;44.83;29.33;;;;;;;;;;6307917;22;20518;-71
2022/12/05 02:05:34;;;;;;;39.63;27.33;;;;;;;;;;6309350;22;20179;-71
2022/12/05 02:08:01;;;;;;;42.77;28.07;;;;;;;;;;6309413;22;20706;-72
2022/12/05 02:10:27;;;;;;;40.03;28.13;;;;;;;;;;6307780;22;20552;-72
2022/12/05 02:12:53;;;;;;;40.17;26.93;;;;;;;;;;6307466;22;20425;-71
2022/12/05 02:15:30;;;;;;;37.93;26.67;;;;;;;;;;6312750;22;20156;-71
2022/12/05 02:18:15;;;;;;;40.83;28.70;;;;;;;;;;6307871;22;20371;-71
2022/12/05 02:21:02;;;;;;;45.53;30.13;;;;;;;;;;6309668;22;20383;-72
2022/12/05 02:23:34;;;;;;;42.50;29.20;;;;;;;;;;6308226;22;20518;-72
2022/12/05 02:26:06;;;;;;;42.80;29.57;;;;;;;;;;6308070;22;20382;-72
2022/12/05 02:28:35;;;;;;;43.00;29.43;;;;;;;;;;6309868;22;20363;-71
2022/12/05 02:31:15;;;;;;;41.77;27.03;;;;;;;;;;6310068;22;20367;-72
2022/12/05 02:33:46;;;;;;;40.10;28.07;;;;;;;;;;6308316;22;20732;-72
2022/12/05 02:36:17;;;;;;;43.17;27.83;;;;;;;;;;6310898;22;20129;-71
2022/12/05 02:38:46;;;;;;;42.87;28.07;;;;;;;;;;6308050;22;20176;-72
2022/12/05 02:41:12;;;;;;;45.83;25.50;;;;;;;;;;6311982;22;20363;-72
2022/12/05 02:43:45;;;;;;;41.27;23.63;;;;;;;;;;6312349;22;20176;-72
2022/12/05 02:46:13;;;;;;;41.57;25.63;;;;;;;;;;6310838;22;20203;-72
2022/12/05 02:48:40;;;;;;;44.63;28.83;;;;;;;;;;6312057;22;20394;-72
2022/12/05 02:51:08;;;;;;;45.03;28.57;;;;;;;;;;6313892;22;20845;-72
2022/12/05 02:53:36;;;;;;;42.10;27.47;;;;;;;;;;6311760;22;20391;-71
2022/12/05 02:56:02;;;;;;;43.47;26.63;;;;;;;;;;6310721;22;20447;-72
2022/12/05 02:58:33;;;;;;;34.63;19.50;;;;;;;;;;6308345;22;20157;-71
2022/12/05 03:00:59;;;;;;;45.63;28.67;;;;;;;;;;6309087;22;20356;-72
2022/12/05 03:03:25;;;;;;;39.40;25.17;;;;;;;;;;6308956;22;20687;-71
2022/12/05 03:06:21;;;;;;;44.93;27.47;;;;;;;;;;6310860;22;20145;-72
2022/12/05 03:09:07;;;;;;;41.43;25.87;;;;;;;;;;6289093;22;20466;-72
2022/12/05 03:11:56;;;;;;;43.33;27.37;;;;;;;;;;6306668;22;20375;-72
2022/12/05 03:14:24;;;;;;;39.80;27.30;;;;;;;;;;6294906;22;20902;-71
2022/12/05 03:16:56;;;;;;;41.50;26.67;;;;;;;;;;6308460;22;20367;-72
2022/12/05 03:19:25;;;;;;;39.40;26.57;;;;;;;;;;6307169;22;20444;-72
2022/12/05 03:22:01;;;;;;;44.07;28.03;;;;;;;;;;6308466;22;20390;-71
2022/12/05 03:24:27;;;;;;;37.73;22.23;;;;;;;;;;6309085;22;20852;-72
2022/12/05 03:27:09;;;;;;;43.33;26.13;;;;;;;;;;6308347;22;20413;-71
2022/12/05 03:29:38;;;;;;;39.67;25.07;;;;;;;;;;6308800;22;20793;-71
2022/12/05 03:32:23;;;;;;;32.87;20.47;;;;;;;;;;6307319;22;20407;-71
2022/12/05 03:35:07;;;;;;;44.50;26.60;;;;;;;;;;6306965;22;20371;-72
2022/12/05 03:37:45;;;;;;;38.57;21.83;;;;;;;;;;6308376;22;20367;-71
2022/12/05 03:40:11;;;;;;;32.50;20.50;;;;;;;;;;6306887;22;20177;-71
2022/12/05 03:42:39;;;;;;;37.10;22.33;;;;;;;;;;6306654;22;20391;-71
2022/12/05 03:45:07;;;;;;;42.87;25.83;;;;;;;;;;6306514;22;20156;-71
2022/12/05 03:47:38;;;;;;;41.30;25.90;;;;;;;;;;6308523;22;20367;-71
2022/12/05 03:50:14;;;;;;;35.30;22.20;;;;;;;;;;6306989;22;20386;-71
2022/12/05 03:52:43;;;;;;;38.60;25.63;;;;;;;;;;6309321;22;20864;-71
2022/12/05 03:55:12;;;;;;;35.10;20.90;;;;;;;;;;6312442;22;20635;-71
2022/12/05 03:57:38;;;;;;;40.10;25.47;;;;;;;;;;6309358;22;20367;-71
2022/12/05 04:00:06;;;;;;;41.80;27.20;;;;;;;;;;6306709;22;20199;-72
2022/12/05 04:02:34;;;;;;;39.37;26.17;;;;;;;;;;6308385;22;20610;-72
2022/12/05 04:05:03;;;;;;;38.33;22.40;;;;;;;;;;6308814;22;20151;-71
2022/12/05 04:07:31;;;;;;;41.30;22.97;;;;;;;;;;6308680;22;20366;-71
2022/12/05 04:10:00;;;;;;;44.60;27.10;;;;;;;;;;6307201;22;20156;-72
2022/12/05 04:12:27;;;;;;;38.97;25.93;;;;;;;;;;6306896;22;20900;-71
2022/12/05 04:14:56;;;;;;;42.87;27.53;;;;;;;;;;6308407;22;20406;-71
2022/12/05 04:17:31;;;;;;;41.50;25.27;;;;;;;;;;6309537;22;20379;-71
2022/12/05 04:22:49;;;;;;;40.80;27.37;;;;;;;;;;6322917;22;20182;-72
2022/12/05 04:25:32;;;;;;;35.57;22.70;;;;;;;;;;6321015;22;20507;-71
2022/12/05 04:28:20;;;;;;;40.23;22.20;;;;;;;;;;6321102;22;20367;-71
2022/12/05 04:31:12;;;;;;;42.03;27.17;;;;;;;;;;6319101;22;20496;-72
2022/12/05 04:33:44;;;;;;;38.63;24.47;;;;;;;;;;6273955;22;20177;-71
2022/12/05 04:36:10;;;;;;;36.33;24.70;;;;;;;;;;6306671;22;20210;-71
2022/12/05 04:38:39;;;;;;;41.17;26.17;;;;;;;;;;6306595;22;20430;-72
2022/12/05 04:41:08;;;;;;;41.20;25.23;;;;;;;;;;6306609;22;20155;-71
2022/12/05 04:43:38;;;;;;;39.93;26.77;;;;;;;;;;6308069;22;20172;-71
2022/12/05 04:46:06;;;;;;;41.93;25.93;;;;;;;;;;6307910;22;20427;-71
2022/12/05 04:48:34;;;;;;;43.10;26.90;;;;;;;;;;6308038;22;20149;-72
2022/12/05 04:51:01;;;;;;;39.57;24.93;;;;;;;;;;6306394;22;20157;-71
2022/12/05 04:53:29;;;;;;;44.00;27.17;;;;;;;;;;6306291;22;20173;-71
2022/12/05 04:55:57;;;;;;;42.63;26.77;;;;;;;;;;6308102;22;20155;-71
2022/12/05 04:58:23;;;;;;;40.60;26.47;;;;;;;;;;6306474;22;20184;-71
2022/12/05 05:00:49;;;;;;;47.47;27.30;;;;;;;;;;6306318;22;20161;-72
2022/12/05 05:03:19;;;;;;;40.07;23.87;;;;;;;;;;6306289;22;20177;-72
2022/12/05 05:05:46;;;;;;;46.33;27.63;;;;;;;;;;6306454;22;20177;-72
2022/12/05 05:08:20;;;;;;;40.17;25.60;;;;;;;;;;6308140;22;20493;-71
2022/12/05 05:11:05;;;;;;;41.20;27.03;;;;;;;;;;6306314;22;20217;-71
2022/12/05 05:13:31;;;;;;;44.77;27.30;;;;;;;;;;6307697;22;20225;-72
2022/12/05 05:15:57;;;;;;;45.93;27.40;;;;;;;;;;6309356;22;20153;-71
2022/12/05 05:18:23;;;;;;;40.80;23.67;;;;;;;;;;6309962;22;20582;-71
2022/12/05 05:20:49;;;;;;;40.50;27.30;;;;;;;;;;6309795;22;20900;-72
2022/12/05 05:23:15;;;;;;;43.53;24.77;;;;;;;;;;6309374;22;20269;-71
2022/12/05 05:25:41;;;;;;;42.37;24.73;;;;;;;;;;6309477;22;20231;-71
2022/12/05 05:28:07;;;;;;;42.23;25.90;;;;;;;;;;6308116;22;20159;-71
2022/12/05 05:30:33;;;;;;;47.60;28.40;;;;;;;;;;6310392;22;20156;-71
2022/12/05 05:32:59;;;;;;;42.67;26.70;;;;;;;;;;6310627;22;20260;-71
2022/12/05 05:35:25;;;;;;;48.27;27.63;;;;;;;;;;6312438;22;20172;-71
2022/12/05 05:37:51;;;;;;;43.97;28.20;;;;;;;;;;6309850;22;20599;-72
2022/12/05 05:40:17;;;;;;;43.20;26.37;;;;;;;;;;6308242;22;20176;-71
2022/12/05 05:42:47;;;;;;;43.67;27.43;;;;;;;;;;6308097;22;20208;-72
2022/12/05 05:45:14;;;;;;;39.40;25.13;;;;;;;;;;6308196;22;20157;-71
2022/12/05 05:47:40;;;;;;;38.77;25.67;;;;;;;;;;6309538;22;20467;-71
2022/12/05 05:50:07;;;;;;;30.33;16.57;;;;;;;;;;6308338;22;20472;-71
2022/12/05 05:52:33;;;;;;;40.50;26.27;;;;;;;;;;6309971;22;20384;-71
2022/12/05 05:54:59;;;;;;;38.43;25.03;;;;;;;;;;6308226;22;20436;-71
2022/12/05 05:57:25;;;;;;;38.17;25.07;;;;;;;;;;6307886;22;20156;-71
2022/12/05 05:59:51;;;;;;;39.50;22.73;;;;;;;;;;6317916;22;20732;-71
2022/12/05 06:02:17;;;;;;;36.50;24.30;;;;;;;;;;6319336;22;20164;-72
2022/12/05 06:04:43;;;;;;;42.10;24.90;;;;;;;;;;6318711;22;20702;-71
2022/12/05 06:07:09;;;;;;;42.47;26.60;;;;;;;;;;6317850;22;20145;-71
2022/12/05 06:09:35;;;;;;;40.80;25.27;;;;;;;;;;6310703;22;20157;-71
2022/12/05 06:12:01;;;;;;;40.17;26.27;;;;;;;;;;6309919;22;20188;-71
2022/12/05 06:14:27;;;;;;;43.33;25.77;;;;;;;;;;6307889;22;20168;-71
2022/12/05 06:16:53;;;;;;;39.07;24.60;;;;;;;;;;6307667;22;20379;-71
2022/12/05 06:19:19;;;;;;;37.30;24.53;;;;;;;;;;6307555;22;20579;-71
2022/12/05 06:21:45;;;;;;;38.60;24.13;;;;;;;;;;6309744;22;20517;-71
2022/12/05 06:24:11;;;;;;;36.67;23.37;;;;;;;;;;6310207;22;20429;-71
2022/12/05 06:26:37;;;;;;;37.87;23.43;;;;;;;;;;6309430;22;20149;-71
2022/12/05 06:29:03;;;;;;;36.03;23.80;;;;;;;;;;6307373;22;20165;-71
2022/12/05 06:31:30;;;;;;;38.33;23.43;;;;;;;;;;6308780;22;20156;-71
2022/12/05 06:33:59;;;;;;;40.70;24.50;;;;;;;;;;6309275;22;20644;-71
2022/12/05 06:36:25;;;;;;;36.00;24.33;;;;;;;;;;6307327;22;20156;-71
2022/12/05 06:38:51;;;;;;;45.00;27.23;;;;;;;;;;6308563;22;20422;-71
2022/12/05 06:41:19;;;;;;;40.17;24.07;;;;;;;;;;6307282;22;20428;-71
2022/12/05 06:43:45;;;;;;;35.30;24.00;;;;;;;;;;6307404;22;20594;-71
2022/12/05 06:46:12;;;;;;;38.63;25.03;;;;;;;;;;6307338;22;20210;-71
2022/12/05 06:48:38;;;;;;;42.50;26.40;;;;;;;;;;6307211;22;20160;-71
2022/12/05 06:51:05;;;;;;;36.63;24.43;;;;;;;;;;6308813;22;20176;-71
2022/12/05 06:53:31;;;;;;;36.93;24.83;;;;;;;;;;6307077;22;20196;-71
2022/12/05 06:55:59;;;;;;;31.87;23.17;;;;;;;;;;6307462;22;20466;-71
2022/12/05 06:58:25;;;;;;;34.20;22.73;;;;;;;;;;6306853;22;20386;-70
2022/12/05 07:03:36;;;;;;;38.73;24.07;;;;;;;;;;6308653;22;20390;-70
2022/12/05 07:06:03;;;;;;;38.57;26.27;;;;;;;;;;6308955;22;20367;-71
2022/12/05 07:08:29;;;;;;;35.73;24.40;;;;;;;;;;6308990;22;20640;-70
2022/12/05 07:10:55;;;;;;;33.37;23.07;;;;;;;;;;6306955;22;20156;-71
2022/12/05 07:13:21;;;;;;;38.30;24.83;;;;;;;;;;6312381;22;20505;-71
2022/12/05 07:15:47;;;;;;;35.43;23.73;;;;;;;;;;6308239;22;20382;-71
2022/12/05 07:18:14;;;;;;;34.97;23.50;;;;;;;;;;6308958;22;20218;-70
2022/12/05 07:20:40;;;;;;;35.80;24.67;;;;;;;;;;6308328;22;20237;-71
2022/12/05 07:23:06;;;;;;;38.17;25.00;;;;;;;;;;6306645;22;20391;-70
2022/12/05 07:25:32;;;;;;;35.40;24.30;;;;;;;;;;6308248;22;20180;-70
2022/12/05 07:27:58;;;;;;;34.50;23.57;;;;;;;;;;6306637;22;20153;-70
2022/12/05 07:30:24;;;;;;;38.33;23.80;;;;;;;;;;6308913;22;20153;-70
2022/12/05 07:32:50;;;;;;;34.73;24.47;;;;;;;;;;6306414;22;20180;-71
2022/12/05 07:35:16;;;;;;;33.27;22.67;;;;;;;;;;6308045;22;20149;-70
2022/12/05 07:37:42;;;;;;;35.73;24.23;;;;;;;;;;6306512;22;20161;-71
2022/12/05 07:40:08;;;;;;;30.23;21.00;;;;;;;;;;6307823;22;20176;-70
2022/12/05 07:42:34;;;;;;;29.23;21.57;;;;;;;;;;6306260;22;20173;-70
2022/12/05 07:45:00;;;;;;;30.33;21.47;;;;;;;;;;6308045;22;20152;-71
2022/12/05 07:47:26;;;;;;;26.17;19.53;;;;;;;;;;6306537;22;20157;-70
2022/12/05 07:49:52;;;;;;;26.40;18.87;;;;;;;;;;6308152;22;20610;-70
2022/12/05 07:52:18;;;;;;;29.53;20.97;;;;;;;;;;6306309;22;20172;-70
2022/12/05 07:54:44;;;;;;;28.77;20.37;;;;;;;;;;6306573;22;20152;-70
2022/12/05 07:57:09;;;;;;;31.30;19.70;;;;;;;;;;6308455;22;20187;-70
2022/12/05 07:59:35;;;;;;;28.03;19.23;;;;;;;;;;6307829;22;20179;-70
2022/12/05 08:02:01;;;;;;;25.80;18.43;;;;;;;;;;6307378;22;20176;-70
2022/12/05 08:04:27;;;;;;;20.80;12.50;;;;;;;;;;6309700;22;20149;-69
2022/12/05 08:06:53;;;;;;;21.70;17.47;;;;;;;;;;6308116;22;20145;-70
2022/12/05 08:09:19;;;;;;;26.83;17.87;;;;;;;;;;6308346;22;20182;-68
2022/12/05 08:11:45;;;;;;;24.17;17.60;;;;;;;;;;6308031;22;20638;-70
2022/12/05 08:14:11;;;;;;;24.83;17.87;;;;;;;;;;6306313;22;20390;-70
2022/12/05 08:16:37;;;;;;;23.53;18.27;;;;;;;;;;6306364;22;20157;-70
2022/12/05 08:19:07;;;;;;;22.77;18.87;;;;;;;;;;6307697;22;20252;-70
2022/12/05 08:21:34;;;;;;;23.20;18.03;;;;;;;;;;6306200;22;20191;-70
2022/12/05 08:24:00;;;;;;;24.33;18.43;;;;;;;;;;6306512;22;20164;-70
2022/12/05 08:26:27;;;;;;;30.30;19.97;;;;;;;;;;6306500;22;20411;-70
2022/12/05 08:28:55;;;;;;;23.63;18.17;;;;;;;;;;6307401;22;20210;-71
2022/12/05 08:31:23;;;;;;;24.40;18.93;;;;;;;;;;6306183;22;20390;-70
2022/12/05 08:33:49;;;;;;;23.80;18.17;;;;;;;;;;6307319;22;20383;-71
2022/12/05 08:36:15;;;;;;;22.37;16.73;;;;;;;;;;6306602;22;20474;-70
2022/12/05 08:38:41;;;;;;;22.70;16.53;;;;;;;;;;6308421;22;20375;-71
2022/12/05 08:41:08;;;;;;;22.20;16.67;;;;;;;;;;6310202;22;20149;-71
2022/12/05 08:43:35;;;;;;;25.87;17.93;;;;;;;;;;6308647;22;20390;-69
2022/12/05 08:46:01;;;;;;;22.27;17.27;;;;;;;;;;6306886;22;20210;-70
2022/12/05 08:48:28;;;;;;;23.37;18.50;;;;;;;;;;6306583;22;20375;-70
2022/12/05 08:50:54;;;;;;;23.60;17.97;;;;;;;;;;6309606;22;20454;-71
2022/12/05 08:53:20;;;;;;;26.40;17.73;;;;;;;;;;6309577;22;20409;-71
2022/12/05 08:55:46;;;;;;;25.53;18.87;;;;;;;;;;6309912;22;20454;-70
2022/12/05 08:58:12;;;;;;;23.50;17.83;;;;;;;;;;6309960;22;20410;-70
2022/12/05 09:00:38;;;;;;;22.10;17.33;;;;;;;;;;6308365;22;20233;-70
2022/12/05 09:03:04;;;;;;;20.87;16.60;;;;;;;;;;6310189;22;20886;-71
2022/12/05 09:05:30;;;;;;;22.27;16.93;;;;;;;;;;6310178;22;20378;-70
2022/12/05 09:07:58;;;;;;;21.53;17.20;;;;;;;;;;6308444;22;20188;-70
2022/12/05 09:10:24;;;;;;;19.53;16.60;;;;;;;;;;6309938;22;20363;-70
2022/12/05 09:12:50;;;;;;;22.83;17.67;;;;;;;;;;6310384;22;20410;-70
2022/12/05 09:15:16;;;;;;;22.43;17.40;;;;;;;;;;6309644;22;20682;-70
2022/12/05 09:17:42;;;;;;;24.03;18.23;;;;;;;;;;6309390;22;20231;-70
2022/12/05 09:20:10;;;;;;;21.27;16.53;;;;;;;;;;6309458;22;20464;-70
2022/12/05 09:22:36;;;;;;;23.93;18.13;;;;;;;;;;6309493;22;20387;-70
2022/12/05 09:25:03;;;;;;;22.43;17.90;;;;;;;;;;6309653;22;20451;-70
2022/12/05 09:27:29;;;;;;;22.87;17.97;;;;;;;;;;6309706;22;20367;-70
2022/12/05 09:29:55;;;;;;;26.70;18.70;;;;;;;;;;6308223;22;20378;-70
2022/12/05 09:32:21;;;;;;;26.37;19.03;;;;;;;;;;6309494;22;20196;-70
2022/12/05 09:34:47;;;;;;;26.77;19.40;;;;;;;;;;6309408;22;20420;-70
2022/12/05 09:37:13;;;;;;;26.23;20.00;;;;;;;;;;6310052;22;20224;-70
2022/12/05 09:39:39;;;;;;;23.50;18.87;;;;;;;;;;6309511;22;20176;-70
2022/12/05 09:42:12;;;;;;;24.63;18.97;;;;;;;;;;6309275;22;20259;-70
2022/12/05 09:44:56;;;;;;;27.07;20.83;;;;;;;;;;6309806;22;20255;-69
2022/12/05 09:47:22;;;;;;;25.00;19.30;;;;;;;;;;6307894;22;20159;-71
2022/12/05 09:49:50;;;;;;;30.07;20.30;;;;;;;;;;6309662;22;20467;-71
2022/12/05 09:52:23;;;;;;;28.50;20.43;;;;;;;;;;6309887;22;20436;-70
2022/12/05 09:54:50;;;;;;;30.07;21.17;;;;;;;;;;6309314;22;20676;-70
2022/12/05 09:57:18;;;;;;;26.30;20.40;;;;;;;;;;6310035;22;20202;-70
2022/12/05 09:59:43;;;;;;;29.63;20.77;;;;;;;;;;6309154;22;20514;-68
2022/12/05 10:02:30;;;;;;;28.83;21.03;;;;;;;;;;6309819;22;20633;-69
2022/12/05 10:05:03;;;;;;;27.83;20.73;;;;;;;;;;6309258;22;20591;-70
2022/12/05 10:07:35;;;;;;;27.33;20.73;;;;;;;;;;6309159;22;20187;-70
2022/12/05 10:10:18;;;;;;;25.77;19.83;;;;;;;;;;6309267;22;20371;-70
2022/12/05 10:13:09;;;;;;;27.33;21.57;;;;;;;;;;6309614;22;20418;-70
2022/12/05 10:15:42;;;;;;;27.20;21.37;;;;;;;;;;6309488;22;20168;-70
2022/12/05 10:18:26;;;;;;;28.47;22.73;;;;;;;;;;6308940;22;20367;-70
2022/12/05 10:21:02;;;;;;;24.67;21.20;;;;;;;;;;6309097;22;20458;-70
2022/12/05 10:23:43;;;;;;;27.70;20.63;;;;;;;;;;6308879;22;20172;-70
2022/12/05 10:26:11;;;;;;;26.53;21.17;;;;;;;;;;6307533;22;20152;-70
2022/12/05 10:28:55;;;;;;;25.67;20.10;;;;;;;;;;6309645;22;20433;-69
2022/12/05 10:31:24;;;;;;;25.63;20.87;;;;;;;;;;6310514;22;20156;-70
2022/12/05 10:33:57;;;;;;;26.63;20.83;;;;;;;;;;6310159;22;20180;-70
2022/12/05 10:36:25;;;;;;;24.37;18.67;;;;;;;;;;6309637;22;20164;-69
2022/12/05 10:38:51;;;;;;;23.67;18.93;;;;;;;;;;6307668;22;20181;-70
2022/12/05 10:41:17;;;;;;;28.53;21.87;;;;;;;;;;6309809;22;20144;-69
2022/12/05 10:43:44;;;;;;;27.80;21.53;;;;;;;;;;6309579;22;20200;-69
2022/12/05 10:46:11;;;;;;;29.43;22.43;;;;;;;;;;6309626;22;20182;-70
2022/12/05 10:48:38;;;;;;;32.53;23.40;;;;;;;;;;6307910;22;20371;-69
2022/12/05 10:51:04;;;;;;;37.40;24.53;;;;;;;;;;6308261;22;20243;-69
2022/12/05 10:53:42;;;;;;;35.70;26.30;;;;;;;;;;6307951;22;20177;-70
2022/12/05 10:56:26;;;;;;;37.30;26.67;;;;;;;;;;6309151;22;20223;-70
2022/12/05 10:58:57;;;;;;;40.40;27.77;;;;;;;;;;6309395;22;20172;-70
2022/12/05 11:01:24;;;;;;;34.93;24.40;;;;;;;;;;6309635;22;20371;-70
2022/12/05 11:03:56;;;;;;;31.60;22.73;;;;;;;;;;6309435;22;20371;-71
2022/12/05 11:06:26;;;;;;;25.00;19.07;;;;;;;;;;6309924;22;20445;-70
2022/12/05 11:08:53;;;;;;;26.20;20.87;;;;;;;;;;6309169;22;20151;-70
2022/12/05 11:11:19;;;;;;;27.03;20.63;;;;;;;;;;6308916;22;20157;-70
2022/12/05 11:13:56;;;;;;;28.10;21.70;;;;;;;;;;6310058;22;20407;-71
2022/12/05 11:16:25;;;;;;;29.57;20.37;;;;;;;;;;6308255;22;20175;-70
2022/12/05 11:18:52;;;;;;;27.83;21.97;;;;;;;;;;6306795;22;20180;-71
2022/12/05 11:21:19;;;;;;;28.17;22.80;;;;;;;;;;6315342;22;20379;-70
2022/12/05 11:23:46;;;;;;;28.30;21.03;;;;;;;;;;6307033;22;20466;-71
2022/12/05 11:26:30;;;;;;;25.47;21.47;;;;;;;;;;6308591;22;20367;-71
2022/12/05 11:28:56;;;;;;;30.70;23.90;;;;;;;;;;6306912;22;20722;-71
2022/12/05 11:31:25;;;;;;;28.37;22.23;;;;;;;;;;6308684;22;20452;-70
2022/12/05 11:34:01;;;;;;;32.67;24.27;;;;;;;;;;6309510;22;20153;-71
2022/12/05 11:36:35;;;;;;;32.13;23.50;;;;;;;;;;6309749;22;20643;-71
2022/12/05 11:39:01;;;;;;;28.10;21.40;;;;;;;;;;6308149;22;20418;-71
2022/12/05 11:41:41;;;;;;;26.00;21.27;;;;;;;;;;6326119;22;20387;-70
2022/12/05 11:44:22;;;;;;;28.33;21.03;;;;;;;;;;6330211;22;20133;-71
2022/12/05 11:47:10;;;;;;;27.97;21.57;;;;;;;;;;6327781;22;20378;-69
2022/12/05 11:49:54;;;;;;;28.43;20.77;;;;;;;;;;6324758;22;20364;-70
2022/12/05 11:52:23;;;;;;;26.80;22.43;;;;;;;;;;6323117;22;20176;-71
2022/12/05 11:55:07;;;;;;;26.00;22.17;;;;;;;;;;6322892;22;20407;-71
2022/12/05 11:57:41;;;;;;;27.43;21.37;;;;;;;;;;6310110;22;20347;-71
2022/12/05 12:00:13;;;;;;;23.80;20.27;;;;;;;;;;6307613;22;20424;-71
2022/12/05 12:02:58;;;;;;;25.40;21.37;;;;;;;;;;6306940;22;20395;-70
2022/12/05 12:05:37;;;;;;;26.83;22.53;;;;;;;;;;6308389;22;20148;-70
2022/12/05 12:08:23;;;;;;;25.57;21.93;;;;;;;;;;6307811;22;20363;-71
2022/12/05 12:10:55;;;;;;;25.70;21.63;;;;;;;;;;6307105;22;20456;-70
2022/12/05 12:13:21;;;;;;;25.87;22.17;;;;;;;;;;6306520;22;20226;-70
2022/12/05 12:15:52;;;;;;;24.23;20.40;;;;;;;;;;6308450;22;20367;-70
2022/12/05 12:18:41;;;;;;;26.30;19.97;;;;;;;;;;6308806;22;20190;-70
2022/12/05 12:21:13;;;;;;;28.13;23.43;;;;;;;;;;6308614;22;20371;-70
2022/12/05 12:23:58;;;;;;;28.37;21.83;;;;;;;;;;6306668;22;20422;-71
2022/12/05 12:26:30;;;;;;;24.90;19.87;;;;;;;;;;6310139;22;20359;-70
2022/12/05 12:29:14;;;;;;;22.13;18.87;;;;;;;;;;6310793;22;20344;-70
2022/12/05 12:31:59;;;;;;;23.43;19.33;;;;;;;;;;6310863;22;20395;-70
2022/12/05 12:34:44;;;;;;;24.27;20.07;;;;;;;;;;6310558;22;20359;-70
2022/12/05 12:37:21;;;;;;;22.60;19.40;;;;;;;;;;6310270;22;20827;-69
2022/12/05 12:40:05;;;;;;;22.87;18.67;;;;;;;;;;6310278;22;20406;-70
2022/12/05 12:42:38;;;;;;;21.90;18.13;;;;;;;;;;6311128;22;20382;-70
2022/12/05 12:45:13;;;;;;;21.83;17.73;;;;;;;;;;6310711;22;20350;-70
2022/12/05 12:47:42;;;;;;;21.47;18.33;;;;;;;;;;6311389;22;20484;-71
2022/12/05 12:50:11;;;;;;;20.03;17.93;;;;;;;;;;6310556;22;20153;-70
2022/12/05 12:52:49;;;;;;;19.73;16.93;;;;;;;;;;6310941;22;20735;-71
2022/12/05 12:55:24;;;;;;;21.00;16.53;;;;;;;;;;6310343;22;20849;-70
2022/12/05 12:57:58;;;;;;;22.70;18.33;;;;;;;;;;6310497;22;20343;-70
2022/12/05 13:00:34;;;;;;;23.93;19.77;;;;;;;;;;6311242;22;20406;-71
2022/12/05 13:03:09;;;;;;;21.07;18.30;;;;;;;;;;6308897;22;20748;-71
2022/12/05 13:05:42;;;;;;;20.93;17.53;;;;;;;;;;6310518;22;20351;-70
2022/12/05 13:08:29;;;;;;;20.33;17.20;;;;;;;;;;6308518;22;20375;-70
2022/12/05 13:10:56;;;;;;;18.70;16.70;;;;;;;;;;6310320;22;20378;-71
2022/12/05 13:13:26;;;;;;;20.37;16.97;;;;;;;;;;6308604;22;20442;-70
2022/12/05 13:15:57;;;;;;;18.37;15.70;;;;;;;;;;6308702;22;20405;-70
2022/12/05 13:18:24;;;;;;;18.40;16.40;;;;;;;;;;6310470;22;20403;-70
2022/12/05 13:20:57;;;;;;;21.90;16.80;;;;;;;;;;6308632;22;20433;-71
2022/12/05 13:23:26;;;;;;;17.80;14.37;;;;;;;;;;6310213;22;20164;-71
2022/12/05 13:25:54;;;;;;;17.83;14.73;;;;;;;;;;6308590;22;20367;-70
2022/12/05 13:28:30;;;;;;;17.83;15.10;;;;;;;;;;6310487;22;20359;-71
2022/12/05 13:30:56;;;;;;;17.83;16.00;;;;;;;;;;6310371;22;20374;-70
2022/12/05 13:33:25;;;;;;;16.73;14.97;;;;;;;;;;6309907;22;20784;-70
2022/12/05 13:44:48;;;;;;;48.67;38.80;;;;;;;;;;6309693;22;20411;-70
2022/12/05 13:47:21;;;;;;;89.47;75.53;;;;;;;;;;6262321;22;20686;-70
2022/12/05 13:49:50;;;;;;;29.90;24.43;;;;;;;;;;6309459;22;20781;-70
2022/12/05 13:52:20;;;;;;;94.10;68.97;;;;;;;;;;6309871;22;20500;-71
2022/12/05 13:54:51;;;;;;;25.40;22.70;;;;;;;;;;6311470;22;20355;-69
2022/12/05 13:57:44;;;;;;;26.90;23.73;;;;;;;;;;6311614;22;20351;-69
2022/12/05 14:00:10;;;;;;;27.27;21.73;;;;;;;;;;6284717;22;20407;-68
2022/12/05 14:02:42;;;;;;;25.47;22.27;;;;;;;;;;6312528;22;20804;-70
2022/12/05 14:05:20;;;;;;;22.47;18.97;;;;;;;;;;6312523;22;20179;-71
2022/12/05 14:07:50;;;;;;;23.60;20.07;;;;;;;;;;6312345;22;20367;-70
2022/12/05 14:10:20;;;;;;;70.97;62.60;;;;;;;;;;6312497;22;20458;-70
2022/12/05 14:13:06;;;;;;;51.10;42.23;;;;;;;;;;6313146;22;20398;-69
2022/12/05 14:15:34;;;;;;;74.43;58.63;;;;;;;;;;6250263;22;20462;-70
2022/12/05 14:18:02;;;;;;;32.77;26.23;;;;;;;;;;6311955;22;20481;-69
2022/12/05 14:20:30;;;;;;;51.90;41.50;;;;;;;;;;6311357;22;20411;-70
2022/12/05 14:23:05;;;;;;;69.43;52.80;;;;;;;;;;6284209;22;20383;-74
2022/12/05 14:25:40;;;;;;;43.10;33.33;;;;;;;;;;6284357;22;20370;-68
2022/12/05 14:28:10;;;;;;;39.33;32.10;;;;;;;;;;6311418;22;20370;-68
2022/12/05 14:31:02;;;;;;;32.37;27.93;;;;;;;;;;6310822;22;20431;-69
2022/12/05 14:33:28;;;;;;;34.10;25.37;;;;;;;;;;6311415;22;20802;-69
2022/12/05 14:35:54;;;;;;;30.87;25.97;;;;;;;;;;6283802;22;20525;-69
2022/12/05 14:38:20;;;;;;;32.50;26.57;;;;;;;;;;6310263;22;20235;-69
2022/12/05 14:40:48;;;;;;;30.23;25.97;;;;;;;;;;6311371;22;20204;-69
2022/12/05 14:43:33;;;;;;;32.57;27.43;;;;;;;;;;6311712;22;20149;-69
2022/12/05 14:46:01;;;;;;;33.40;27.20;;;;;;;;;;6311387;22;20432;-69